Sacramento, California
Traffic Map
Current Weather Conditions
Sacramento, California
Clear
Clear
17°
Feels Like: 17°
Wind Chill: 17° Ceiling: Unl
Heat Index: 17° Visibility: 10mi
Dew Point: 10° Wind: 8mph
Humidity: 63% Direction: 200° (SSW)
Pressure: 29.99in Gusts: 0mph
Raw Report DataKSAC 261753Z 20007KT 10SM CLR 17/10 A2999 RMK AO2 SLP155 T01720100 10172 20100 53003
Traffic Incident Summary
Active as of:
Severity:
Category:
InformationThere was an issue retrieving the traffic information for this location. Please try a different location or try again shortly.
Advertisements